Time;durP1;ratioP1;P1;durP2;ratioP2;P2;SDS_P1;SDS_P2;PMS_P1;PMS_P2;Temp;Humidity;BMP_temperature;BMP_pressure;BME280_temperature;BME280_humidity;BME280_pressure;Samples;Min_cycle;Max_cycle;Signal;HPM_P1;HPM_P2
2022/10/08 00:01:03;;;;;;;11.07;3.20;;;;;;;14.20;65.34;101381.38;3577241;40;20705;-63
2022/10/08 00:03:34;;;;;;;13.05;4.28;;;;;;;14.16;65.75;101388.81;3579516;40;20048;-63
2022/10/08 00:06:26;;;;;;;11.07;3.38;;;;;;;14.03;65.90;101369.00;3581970;39;20052;-64
2022/10/08 00:08:57;;;;;;;8.88;2.90;;;;;;;14.14;65.64;101382.63;3579356;40;20276;-64
2022/10/08 00:11:39;;;;;;;11.48;3.00;;;;;;;14.13;65.96;101381.78;3580476;39;20480;-64
2022/10/08 00:14:06;;;;;;;11.38;2.70;;;;;;;14.13;65.87;101380.91;3577907;40;20056;-64
2022/10/08 00:16:37;;;;;;;8.63;2.70;;;;;;;13.57;65.46;101289.19;3579904;39;20410;-64
2022/10/08 00:19:09;;;;;;;12.55;2.75;;;;;;;14.18;65.54;101384.19;3580039;40;20060;-64
2022/10/08 00:21:38;;;;;;;7.47;2.67;;;;;;;14.14;65.86;101369.13;3579279;40;20060;-64
2022/10/08 00:24:07;;;;;;;11.32;3.00;;;;;;;13.42;65.84;101245.19;3579057;40;20094;-64
2022/10/08 00:26:34;;;;;;;9.93;2.92;;;;;;;14.27;65.89;101391.69;3581697;40;20121;-64
2022/10/08 00:29:05;;;;;;;13.63;3.10;;;;;;;14.30;66.11;101386.06;3581019;40;20040;-64
2022/10/08 00:31:36;;;;;;;10.68;3.08;;;;;;;14.34;66.01;101394.81;3588531;39;20063;-64
2022/10/08 00:34:08;;;;;;;12.43;2.88;;;;;;;14.39;65.73;101388.09;3587110;39;20096;-64
2022/10/08 00:36:36;;;;;;;8.10;2.97;;;;;;;14.42;65.85;101386.16;3579097;40;20051;-64
2022/10/08 00:39:12;;;;;;;11.48;2.88;;;;;;;14.48;65.96;101383.03;3579269;40;20045;-64
2022/10/08 00:41:39;;;;;;;11.30;2.85;;;;;;;14.49;66.18;101377.50;3573443;40;20044;-64
2022/10/08 00:44:46;;;;;;;11.23;3.10;;;;;;;14.51;66.03;101386.44;3583361;40;20055;-64
2022/10/08 00:47:32;;;;;;;10.45;2.65;;;;;;;13.72;66.09;101245.91;3583036;40;20064;-64
2022/10/08 00:50:23;;;;;;;10.52;2.80;;;;;;;14.58;65.81;101392.28;3580974;40;20132;-64
2022/10/08 00:53:00;;;;;;;7.90;2.55;;;;;;;14.51;66.14;101369.34;3581934;40;20048;-64
2022/10/08 00:55:28;;;;;;;10.52;2.70;;;;;;;14.59;65.81;101384.06;3577235;40;20127;-64
2022/10/08 00:58:11;;;;;;;8.73;2.50;;;;;;;14.58;66.13;101382.31;3587177;39;20053;-64
2022/10/08 01:00:36;;;;;;;12.75;3.03;;;;;;;14.67;65.83;101401.59;3579241;40;20594;-63
2022/10/08 01:03:02;;;;;;;13.25;3.28;;;;;;;14.37;66.16;101337.81;3583282;39;20287;-63
2022/10/08 01:05:54;;;;;;;10.40;2.55;;;;;;;14.62;66.22;101380.28;3579757;40;20068;-64
2022/10/08 01:08:47;;;;;;;11.93;2.65;;;;;;;14.69;66.63;101400.53;3577333;40;20118;-63
2022/10/08 01:11:34;;;;;;;14.75;2.58;;;;;;;14.71;66.35;101408.53;3579140;40;20513;-63
2022/10/08 01:14:33;;;;;;;8.48;2.65;;;;;;;14.69;66.96;101415.91;3576277;40;20081;-63
2022/10/08 01:17:17;;;;;;;10.05;3.03;;;;;;;14.68;67.44;101414.16;3579692;40;20091;-63
2022/10/08 01:20:14;;;;;;;;;;;;;;;14.62;69.10;101421.75;3580006;40;20049;-63
2022/10/08 01:23:07;;;;;;;7.25;2.70;;;;;;;14.56;70.18;101422.16;3580227;40;19996;-63
2022/10/08 01:25:53;;;;;;;10.55;2.80;;;;;;;14.35;70.95;101401.97;3582027;40;20052;-63
2022/10/08 01:28:35;;;;;;;10.60;2.60;;;;;;;14.46;71.38;101425.56;3583083;40;20052;-63
2022/10/08 01:31:20;;;;;;;8.07;2.70;;;;;;;14.43;71.22;101414.94;3585849;40;20048;-63
2022/10/08 01:34:06;;;;;;;8.88;2.67;;;;;;;14.37;70.93;101411.72;3578081;40;20049;-63
2022/10/08 01:36:43;;;;;;;16.38;3.42;;;;;;;14.35;70.51;101412.78;3576761;40;20126;-63
2022/10/08 01:39:17;;;;;;;5.05;2.15;;;;;;;14.34;70.74;101411.91;3581292;40;20414;-63
2022/10/08 01:41:55;;;;;;;9.35;2.53;;;;;;;14.30;70.93;101413.09;3578509;40;20068;-62
2022/10/08 01:44:44;;;;;;;9.07;2.33;;;;;;;14.26;70.70;101408.00;3583309;40;20402;-63
2022/10/08 01:47:18;;;;;;;9.90;3.03;;;;;;;13.70;71.54;101319.84;3583109;40;20068;-63
2022/10/08 01:50:13;;;;;;;9.43;2.25;;;;;;;14.26;71.05;101408.00;3585620;40;20395;-63
2022/10/08 01:53:14;;;;;;;6.22;2.50;;;;;;;13.32;71.07;101259.38;3579132;40;20111;-63
2022/10/08 01:55:49;;;;;;;6.57;2.08;;;;;;;13.98;71.17;101373.84;3580417;40;20052;-62
2022/10/08 01:58:30;;;;;;;6.10;2.25;;;;;;;14.22;71.07;101428.09;3584160;40;20437;-62
2022/10/08 02:01:08;;;;;;;8.50;2.42;;;;;;;14.22;71.74;101447.91;3581422;40;20055;-62
2022/10/08 02:03:33;;;;;;;9.85;2.22;;;;;;;14.17;72.28;101437.38;3580992;39;20044;-63
2022/10/08 02:06:04;;;;;;;8.88;2.40;;;;;;;14.11;72.20;101432.41;3577542;40;20485;-62
2022/10/08 02:08:30;;;;;;;8.70;2.45;;;;;;;13.37;72.80;101322.06;3581467;40;20076;-63
2022/10/08 02:10:55;;;;;;;8.35;2.13;;;;;;;13.94;73.62;101427.25;3582099;40;20056;-63
2022/10/08 02:13:22;;;;;;;9.93;2.40;;;;;;;13.88;73.84;101438.47;3584077;39;20389;-63
2022/10/08 02:16:10;;;;;;;9.18;2.30;;;;;;;13.75;74.45;101434.84;3582859;40;20049;-63
2022/10/08 02:18:47;;;;;;;7.10;2.60;;;;;;;13.69;75.12;101442.34;3581455;40;20108;-63
2022/10/08 02:21:26;;;;;;;6.45;2.20;;;;;;;13.62;75.63;101430.22;3587294;39;20096;-66
2022/10/08 02:24:15;;;;;;;8.13;2.25;;;;;;;13.57;76.46;101426.94;3583087;40;20120;-63
2022/10/08 02:27:00;;;;;;;7.50;2.38;;;;;;;13.43;76.50;101418.88;3580041;40;20060;-63
2022/10/08 02:29:59;;;;;;;7.32;2.10;;;;;;;13.46;77.32;101435.75;3583217;40;20484;-63
2022/10/08 02:32:43;;;;;;;10.25;2.30;;;;;;;13.45;77.51;101442.13;3580817;40;20399;-62
2022/10/08 02:35:21;;;;;;;5.68;2.00;;;;;;;13.42;77.57;101444.16;3578852;40;20069;-61
2022/10/08 02:38:04;;;;;;;5.80;2.10;;;;;;;13.39;78.02;101439.81;3581843;40;20149;-61
2022/10/08 02:40:35;;;;;;;8.32;2.47;;;;;;;13.37;78.11;101440.88;3575360;39;20048;-61
2022/10/08 02:43:15;;;;;;;5.20;2.03;;;;;;;13.29;77.75;101433.28;3584150;40;20056;-61
2022/10/08 02:45:54;;;;;;;8.32;2.50;;;;;;;13.25;78.25;101431.72;3583296;40;20043;-60
2022/10/08 02:48:30;;;;;;;7.95;2.60;;;;;;;12.42;78.60;101303.81;3582037;40;20049;-61
2022/10/08 02:51:03;;;;;;;6.20;2.30;;;;;;;12.35;78.89;101294.38;3580449;40;20052;-61
2022/10/08 02:53:29;;;;;;;7.60;2.13;;;;;;;13.15;78.99;101431.41;3580171;40;20052;-61
2022/10/08 02:56:26;;;;;;;6.32;2.20;;;;;;;13.15;79.40;101434.09;3584287;39;20450;-61
2022/10/08 02:58:54;;;;;;;7.68;2.30;;;;;;;13.08;79.41;101413.84;3580961;40;20162;-61
2022/10/08 03:01:43;;;;;;;11.13;2.45;;;;;;;13.14;79.30;101428.81;3581097;40;20059;-61
2022/10/08 03:04:20;;;;;;;9.20;1.95;;;;;;;13.11;78.89;101431.69;3578815;40;20059;-61
2022/10/08 03:06:48;;;;;;;6.88;2.35;;;;;;;13.05;79.41;101424.84;3577028;40;20412;-61
2022/10/08 03:09:18;;;;;;;9.25;2.40;;;;;;;13.07;79.18;101433.72;3579143;40;20396;-61
2022/10/08 03:11:45;;;;;;;5.60;2.28;;;;;;;13.05;79.68;101435.63;3577127;40;20122;-60
2022/10/08 03:14:17;;;;;;;7.80;2.30;;;;;;;12.21;79.60;101292.50;3585675;40;20072;-61
2022/10/08 03:16:46;;;;;;;12.30;2.95;;;;;;;12.43;79.45;101335.19;3579845;40;20137;-61
2022/10/08 03:19:16;;;;;;;9.30;2.90;;;;;;;13.02;79.62;101439.41;3580674;40;20288;-61
2022/10/08 03:21:46;;;;;;;6.35;2.30;;;;;;;13.02;80.36;101438.53;3582337;40;20059;-61
2022/10/08 03:24:14;;;;;;;6.07;2.33;;;;;;;11.80;80.17;101240.16;3580170;40;20598;-61
2022/10/08 03:26:40;;;;;;;6.55;2.42;;;;;;;13.04;80.28;101450.09;3582668;40;20129;-61
2022/10/08 03:29:07;;;;;;;9.30;2.15;;;;;;;13.04;80.09;101444.72;3583087;40;20410;-60
2022/10/08 03:31:34;;;;;;;6.50;2.42;;;;;;;13.06;80.55;101448.16;3579560;40;20375;-60
2022/10/08 03:34:00;;;;;;;6.25;2.13;;;;;;;13.07;80.32;101449.91;3579671;39;20055;-61
2022/10/08 03:36:27;;;;;;;7.35;2.40;;;;;;;13.11;80.60;101454.16;3583630;40;20040;-61
2022/10/08 03:38:53;;;;;;;5.90;2.63;;;;;;;13.09;80.24;101458.78;3579508;40;20055;-61
2022/10/08 03:41:20;;;;;;;6.82;2.45;;;;;;;13.11;80.79;101467.66;3588303;39;20299;-61
2022/10/08 03:43:46;;;;;;;7.32;2.45;;;;;;;12.99;80.37;101454.91;3585837;40;20048;-59
2022/10/08 03:46:14;;;;;;;6.07;2.10;;;;;;;12.13;80.53;101311.84;3578994;40;20052;-59
2022/10/08 03:48:41;;;;;;;6.35;2.42;;;;;;;13.05;81.09;101478.81;3580384;40;20063;-59
2022/10/08 03:51:11;;;;;;;6.22;2.38;;;;;;;13.00;80.76;101478.22;3579157;39;20126;-59
2022/10/08 03:53:41;;;;;;;9.10;2.78;;;;;;;12.97;81.33;101473.03;3580050;40;20066;-59
2022/10/08 03:56:11;;;;;;;8.02;2.83;;;;;;;12.92;81.04;101477.84;3581616;40;20138;-59
2022/10/08 03:58:38;;;;;;;6.00;2.90;;;;;;;12.87;80.97;101474.56;3585662;40;20057;-59
2022/10/08 04:01:13;;;;;;;7.70;2.58;;;;;;;12.83;81.27;101478.41;3584589;40;20080;-59
2022/10/08 04:03:39;;;;;;;4.70;2.40;;;;;;;12.12;81.46;101363.16;3581337;40;20048;-60
2022/10/08 04:06:05;;;;;;;9.23;2.70;;;;;;;12.77;81.90;101476.94;3584416;40;20146;-62
2022/10/08 04:08:33;;;;;;;6.47;2.55;;;;;;;12.57;82.41;101439.53;3578882;40;20370;-63
2022/10/08 04:11:09;;;;;;;4.53;2.63;;;;;;;12.64;82.01;101471.41;3580548;40;20065;-64
2022/10/08 04:13:36;;;;;;;9.18;3.15;;;;;;;12.65;82.63;101473.16;3584828;39;20398;-64
2022/10/08 04:16:20;;;;;;;7.78;3.35;;;;;;;12.63;82.46;101476.94;3578235;40;20093;-64
2022/10/08 04:18:47;;;;;;;;;;;;;;;12.45;83.34;101451.91;3582255;40;20276;-65
2022/10/08 04:21:16;;;;;;;7.72;3.90;;;;;;;12.61;83.91;101485.09;3577875;40;19935;-65
2022/10/08 04:23:43;;;;;;;12.30;6.63;;;;;;;12.67;83.54;101482.03;3586077;39;20060;-64
2022/10/08 04:26:13;;;;;;;10.85;6.38;;;;;;;12.68;83.60;101477.50;3583126;40;20300;-65
2022/10/08 04:28:43;;;;;;;13.25;7.45;;;;;;;12.70;84.07;101483.69;3584072;40;20383;-65
2022/10/08 04:31:20;;;;;;;14.48;8.85;;;;;;;12.73;84.17;101484.34;3589574;39;20087;-66
2022/10/08 04:33:46;;;;;;;24.02;12.52;;;;;;;12.04;84.24;101361.75;3580643;40;20056;-65
2022/10/08 04:36:19;;;;;;;17.02;12.82;;;;;;;12.80;85.09;101490.25;3579446;40;20066;-65
2022/10/08 04:38:46;;;;;;;21.40;14.48;;;;;;;12.82;84.64;101492.88;3582234;40;20047;-65
2022/10/08 04:41:23;;;;;;;23.38;15.98;;;;;;;12.85;85.02;101498.94;3584779;40;20070;-66
2022/10/08 04:43:51;;;;;;;26.05;17.20;;;;;;;12.94;84.78;101500.19;3585352;40;20059;-65
2022/10/08 04:46:20;;;;;;;25.80;18.63;;;;;;;12.80;84.90;101474.06;3585340;40;20064;-65
2022/10/08 04:48:50;;;;;;;29.67;20.98;;;;;;;13.00;84.98;101507.91;3584988;39;20053;-66
2022/10/08 04:51:17;;;;;;;33.78;22.05;;;;;;;13.03;85.08;101513.13;3577830;40;20056;-66
2022/10/08 04:53:43;;;;;;;40.35;24.80;;;;;;;13.06;85.14;101514.78;3581050;40;20044;-67
2022/10/08 04:56:20;;;;;;;37.35;24.45;;;;;;;13.05;85.28;101515.75;3586736;40;20153;-67
2022/10/08 04:58:46;;;;;;;38.08;25.13;;;;;;;13.11;84.86;101529.72;3581244;40;20092;-64
2022/10/08 05:01:17;;;;;;;37.03;25.92;;;;;;;13.13;84.96;101530.53;3582865;40;20052;-66
2022/10/08 05:03:47;;;;;;;36.55;26.25;;;;;;;13.15;85.39;101533.97;3590170;39;20059;-66
2022/10/08 05:06:15;;;;;;;37.15;25.30;;;;;;;13.02;85.22;101511.41;3577013;40;20052;-68
2022/10/08 05:08:43;;;;;;;40.17;26.02;;;;;;;13.21;84.74;101539.00;3585297;40;20058;-66
2022/10/08 05:11:09;;;;;;;36.45;26.42;;;;;;;13.20;84.86;101529.19;3584712;40;20336;-67
2022/10/08 05:13:35;;;;;;;40.10;27.05;;;;;;;13.01;85.21;101501.56;3585892;39;20054;-66
2022/10/08 05:16:04;;;;;;;39.05;28.17;;;;;;;13.14;84.78;101516.06;3579629;39;20048;-67
2022/10/08 05:18:32;;;;;;;38.15;27.05;;;;;;;13.14;84.57;101532.25;3580494;39;20146;-67
2022/10/08 05:21:05;;;;;;;48.38;27.95;;;;;;;12.56;84.39;101433.28;3577047;40;20361;-67
2022/10/08 05:23:31;;;;;;;38.30;27.20;;;;;;;13.08;84.35;101529.06;3581702;40;20060;-67
2022/10/08 05:25:57;;;;;;;42.28;28.15;;;;;;;13.18;84.75;101541.88;3580847;40;20044;-68
2022/10/08 05:28:23;;;;;;;50.17;29.48;;;;;;;13.19;84.86;101545.44;3580329;40;20312;-68
2022/10/08 05:30:48;;;;;;;39.00;28.08;;;;;;;13.19;85.32;101546.34;3577824;40;20394;-68
2022/10/08 05:33:14;;;;;;;41.58;28.48;;;;;;;13.20;84.71;101553.47;3578357;40;20411;-67
2022/10/08 05:35:39;;;;;;;43.72;29.35;;;;;;;13.05;84.76;101524.72;3581817;40;20063;-67
2022/10/08 05:38:05;;;;;;;43.70;29.83;;;;;;;13.19;84.93;101554.44;3577477;40;20067;-68
2022/10/08 05:40:31;;;;;;;44.13;29.80;;;;;;;13.16;85.13;101557.34;3581008;40;20072;-67
2022/10/08 05:42:56;;;;;;;45.92;30.67;;;;;;;13.18;85.19;101558.09;3580941;40;20087;-67
2022/10/08 05:45:22;;;;;;;49.60;30.63;;;;;;;13.15;84.91;101563.66;3580123;40;20556;-67
2022/10/08 05:47:48;;;;;;;47.63;30.02;;;;;;;13.21;84.73;101570.53;3579334;40;20051;-67
2022/10/08 05:50:15;;;;;;;42.85;30.00;;;;;;;13.21;84.93;101571.41;3579610;40;21593;-67
2022/10/08 05:52:40;;;;;;;46.72;30.70;;;;;;;13.21;84.39;101579.50;3586701;40;20065;-67
2022/10/08 05:55:07;;;;;;;45.75;30.42;;;;;;;13.21;84.97;101579.50;3578213;40;20074;-66
2022/10/08 05:57:33;;;;;;;48.60;31.15;;;;;;;13.21;85.03;101581.34;3579563;40;20051;-68
2022/10/08 05:59:58;;;;;;;52.40;31.92;;;;;;;13.22;84.98;101583.97;3578496;40;20346;-67
2022/10/08 06:02:25;;;;;;;47.08;30.42;;;;;;;13.13;84.87;101573.72;3578730;40;20060;-66
2022/10/08 06:04:51;;;;;;;53.70;32.30;;;;;;;12.33;84.47;101458.91;3581244;40;20048;-64
2022/10/08 06:07:16;;;;;;;50.42;31.98;;;;;;;13.18;84.37;101601.28;3583108;40;20051;-65
2022/10/08 06:09:43;;;;;;;49.95;31.90;;;;;;;13.14;84.28;101602.44;3583744;40;20059;-66
2022/10/08 06:12:11;;;;;;;49.08;31.80;;;;;;;13.10;84.36;101609.00;3586103;39;20060;-65
2022/10/08 06:14:37;;;;;;;49.00;32.40;;;;;;;13.04;85.12;101598.56;3578989;40;20475;-65
2022/10/08 06:17:02;;;;;;;46.65;31.98;;;;;;;12.98;85.02;101601.63;3579587;40;20226;-65
2022/10/08 06:19:28;;;;;;;46.70;30.85;;;;;;;13.04;84.46;101609.34;3580429;40;20059;-65
2022/10/08 06:21:53;;;;;;;48.53;31.58;;;;;;;13.00;84.86;101622.16;3577194;40;20067;-65
2022/10/08 06:24:20;;;;;;;47.95;31.52;;;;;;;13.01;85.09;101632.00;3584977;39;20059;-65
2022/10/08 06:26:46;;;;;;;58.17;31.50;;;;;;;13.02;85.19;101630.16;3580309;40;20048;-65
2022/10/08 06:29:15;;;;;;;49.60;31.70;;;;;;;13.02;85.25;101627.47;3574859;40;20079;-66
2022/10/08 06:31:42;;;;;;;50.05;31.10;;;;;;;13.00;84.61;101632.97;3579644;40;20051;-66
2022/10/08 06:34:08;;;;;;;50.85;31.45;;;;;;;12.98;85.10;101628.63;3576879;40;20064;-65
2022/10/08 06:36:36;;;;;;;46.22;29.40;;;;;;;12.97;84.51;101632.25;3578355;40;20083;-66
2022/10/08 06:39:08;;;;;;;46.95;30.98;;;;;;;13.00;84.80;101640.16;3576511;40;20134;-65
2022/10/08 06:41:34;;;;;;;47.50;30.20;;;;;;;13.00;85.01;101648.25;3577194;40;20053;-65
2022/10/08 06:44:06;;;;;;;40.47;28.88;;;;;;;12.97;84.71;101648.44;3580299;40;20063;-65
2022/10/08 06:46:33;;;;;;;47.22;30.60;;;;;;;12.98;85.40;101664.56;3578601;40;20049;-65
2022/10/08 06:49:00;;;;;;;46.45;28.98;;;;;;;12.96;85.27;101658.38;3578190;40;20060;-65
2022/10/08 06:51:27;;;;;;;46.40;28.80;;;;;;;13.01;85.70;101677.00;3579365;40;20133;-65
2022/10/08 06:53:56;;;;;;;40.70;28.13;;;;;;;13.12;85.26;101679.94;3578536;40;20441;-65
2022/10/08 06:56:24;;;;;;;38.72;26.10;;;;;;;13.19;85.11;101692.13;3577001;40;20056;-65
2022/10/08 06:58:51;;;;;;;37.90;26.33;;;;;;;13.26;84.76;101680.97;3578380;39;20064;-64
2022/10/08 07:01:24;;;;;;;37.58;24.20;;;;;;;13.27;84.31;101685.44;3577332;40;20082;-66
2022/10/08 07:03:56;;;;;;;36.95;23.50;;;;;;;13.29;83.96;101691.59;3578733;40;20145;-65
2022/10/08 07:06:24;;;;;;;34.33;22.45;;;;;;;12.56;84.26;101573.53;3578695;40;20059;-65
2022/10/08 07:09:00;;;;;;;35.85;22.05;;;;;;;13.37;83.91;101713.63;3580533;39;20307;-65
2022/10/08 07:11:29;;;;;;;31.33;21.02;;;;;;;13.42;83.82;101709.69;3579770;40;20098;-66
2022/10/08 07:13:56;;;;;;;32.85;19.92;;;;;;;13.51;83.51;101713.69;3578318;40;20060;-65
2022/10/08 07:16:26;;;;;;;29.80;18.48;;;;;;;13.59;83.04;101726.72;3574889;40;20626;-65
2022/10/08 07:18:57;;;;;;;26.02;17.40;;;;;;;13.65;82.54;101723.66;3577580;40;20052;-65
2022/10/08 07:21:24;;;;;;;25.75;16.83;;;;;;;13.70;81.87;101732.31;3579572;40;20054;-66
2022/10/08 07:23:50;;;;;;;25.42;16.33;;;;;;;12.61;81.35;101533.63;3578908;40;20084;-65
2022/10/08 07:26:25;;;;;;;26.45;16.13;;;;;;;13.87;81.31;101737.59;3579055;40;20068;-65
2022/10/08 07:28:57;;;;;;;20.98;14.02;;;;;;;13.89;81.08;101719.47;3580693;40;20047;-66
2022/10/08 07:31:28;;;;;;;20.95;13.70;;;;;;;14.07;80.03;101730.94;3587298;39;20080;-65
2022/10/08 07:33:58;;;;;;;20.15;13.70;;;;;;;14.16;79.49;101738.50;3582501;40;20403;-66
2022/10/08 07:36:26;;;;;;;20.23;12.35;;;;;;;14.24;79.55;101748.84;3580973;40;20076;-65
2022/10/08 07:38:58;;;;;;;18.20;11.88;;;;;;;14.38;79.01;101737.16;3581160;40;20372;-66
2022/10/08 07:41:26;;;;;;;21.00;11.25;;;;;;;14.56;77.59;101749.56;3580694;40;20130;-66
2022/10/08 07:43:56;;;;;;;17.98;10.48;;;;;;;14.76;77.53;101750.09;3579402;40;20064;-66
2022/10/08 07:46:22;;;;;;;14.10;9.32;;;;;;;14.92;76.46;101758.97;3584142;39;20051;-66
2022/10/08 07:48:49;;;;;;;17.20;9.23;;;;;;;15.05;74.39;101776.13;3580395;40;20052;-66
2022/10/08 07:51:19;;;;;;;16.00;8.50;;;;;;;15.13;73.65;101766.63;3580027;40;20079;-66
2022/10/08 07:53:45;;;;;;;14.63;7.60;;;;;;;14.75;72.94;101688.84;3578869;40;20111;-66
2022/10/08 07:56:16;;;;;;;13.45;6.85;;;;;;;15.24;72.24;101767.66;3580096;40;20057;-66
2022/10/08 07:58:42;;;;;;;14.75;7.03;;;;;;;15.33;72.01;101771.63;3580926;40;20052;-67
2022/10/08 08:01:15;;;;;;;12.05;6.07;;;;;;;15.44;72.29;101776.31;3581023;40;20477;-66
2022/10/08 08:03:41;;;;;;;9.13;5.15;;;;;;;15.58;70.28;101778.97;3578799;40;20097;-66
2022/10/08 08:06:12;;;;;;;9.02;4.70;;;;;;;15.73;68.85;101791.50;3577537;40;20061;-66
2022/10/08 08:08:42;;;;;;;8.07;4.30;;;;;;;15.85;67.54;101797.06;3579915;40;20064;-67
2022/10/08 08:11:11;;;;;;;10.18;4.18;;;;;;;15.84;67.16;101788.06;3580458;40;20044;-66
2022/10/08 08:13:38;;;;;;;8.98;4.88;;;;;;;15.98;67.71;101789.81;3579967;40;20052;-66
2022/10/08 08:16:18;;;;;;;12.10;3.80;;;;;;;16.12;67.03;101791.59;3576207;40;20097;-66
2022/10/08 08:18:48;;;;;;;10.90;4.32;;;;;;;16.21;65.98;101793.66;3579451;40;20047;-67
2022/10/08 08:21:24;;;;;;;8.02;3.65;;;;;;;15.64;66.55;101669.28;3578516;40;20067;-66
2022/10/08 08:23:53;;;;;;;10.98;4.13;;;;;;;16.62;65.51;101795.28;3579351;40;20383;-66
2022/10/08 08:26:31;;;;;;;12.07;3.63;;;;;;;16.84;64.17;101809.06;3581376;40;20048;-67
2022/10/08 08:29:04;;;;;;;9.88;3.42;;;;;;;16.93;63.48;101811.09;3580298;40;20056;-66
2022/10/08 08:31:40;;;;;;;10.75;3.67;;;;;;;16.99;63.15;101798.03;3581110;40;20096;-66
2022/10/08 08:34:14;;;;;;;7.90;3.58;;;;;;;17.23;62.70;101828.84;3575785;40;20107;-66
2022/10/08 08:36:43;;;;;;;8.45;3.45;;;;;;;17.28;62.11;101836.66;3580114;40;20060;-67
2022/10/08 08:39:25;;;;;;;10.75;3.20;;;;;;;17.31;62.02;101831.84;3578148;40;20732;-66
2022/10/08 08:42:06;;;;;;;10.57;3.58;;;;;;;17.36;61.09;101837.81;3576039;40;20052;-66
2022/10/08 08:44:38;;;;;;;8.38;3.20;;;;;;;17.45;61.18;101836.28;3579891;40;20060;-66
2022/10/08 08:47:27;;;;;;;10.15;3.17;;;;;;;17.52;59.43;101842.97;3577483;40;20438;-65
2022/10/08 08:50:24;;;;;;;7.82;2.88;;;;;;;17.61;59.66;101846.88;3579333;40;20088;-69
2022/10/08 08:52:51;;;;;;;5.25;2.55;;;;;;;17.72;59.43;101846.03;3578955;40;20060;-65
2022/10/08 08:55:24;;;;;;;7.00;1.95;;;;;;;17.89;58.73;101844.78;3580177;40;20044;-65
2022/10/08 08:58:05;;;;;;;7.40;2.05;;;;;;;18.04;56.54;101847.19;3576988;40;20056;-65
2022/10/08 09:00:40;;;;;;;7.25;1.77;;;;;;;17.62;55.19;101776.03;3577568;40;20402;-65
2022/10/08 09:03:20;;;;;;;6.88;1.90;;;;;;;18.12;55.37;101860.22;3578865;40;20064;-65
2022/10/08 09:05:56;;;;;;;6.07;1.65;;;;;;;18.24;55.05;101864.72;3581968;40;20391;-64
2022/10/08 09:08:33;;;;;;;6.45;1.90;;;;;;;18.25;54.81;101852.84;3579705;40;20167;-64
2022/10/08 09:11:02;;;;;;;5.00;1.52;;;;;;;18.41;54.19;101857.94;3579769;40;20072;-64
2022/10/08 09:13:40;;;;;;;7.07;1.60;;;;;;;18.48;53.73;101853.75;3581248;40;20060;-64
2022/10/08 09:16:11;;;;;;;7.65;2.67;;;;;;;18.66;51.83;101854.16;3578945;40;20085;-64
2022/10/08 09:18:37;;;;;;;9.52;2.40;;;;;;;18.23;51.21;101766.84;3581577;40;20060;-64
2022/10/08 09:21:04;;;;;;;7.90;2.00;;;;;;;18.77;49.94;101865.09;3578860;40;20065;-64
2022/10/08 09:23:29;;;;;;;2.97;1.02;;;;;;;18.85;51.00;101869.94;3579451;40;20048;-64
2022/10/08 09:26:16;;;;;;;6.30;1.30;;;;;;;18.94;50.44;101876.50;3581881;39;20064;-65
2022/10/08 09:28:52;;;;;;;6.68;1.77;;;;;;;18.72;50.08;101889.13;3581015;40;20406;-65
2022/10/08 09:31:41;;;;;;;5.85;1.38;;;;;;;18.50;50.26;101883.59;3576818;40;20524;-65
2022/10/08 09:34:09;;;;;;;4.80;1.40;;;;;;;18.62;50.95;101892.66;3578150;40;20126;-65
2022/10/08 09:36:45;;;;;;;6.35;1.15;;;;;;;18.69;50.24;101889.31;3583922;39;20063;-65
2022/10/08 09:39:23;;;;;;;7.88;1.55;;;;;;;18.51;49.46;101907.09;3579962;40;20130;-65
2022/10/08 09:42:21;;;;;;;4.85;1.25;;;;;;;18.31;51.01;101906.81;3576242;40;20052;-64
2022/10/08 09:44:55;;;;;;;6.18;1.40;;;;;;;18.05;50.01;101906.09;3567175;40;20058;-64
2022/10/08 09:47:24;;;;;;;7.90;2.10;;;;;;;17.15;51.54;101785.94;3576872;40;20052;-65
2022/10/08 09:50:17;;;;;;;8.75;2.03;;;;;;;18.14;52.10;101904.53;3578773;40;20287;-64
2022/10/08 09:52:48;;;;;;;4.90;1.70;;;;;;;18.40;50.84;101917.97;3583833;39;20056;-64
2022/10/08 09:55:34;;;;;;;10.50;1.70;;;;;;;18.68;51.47;101917.56;3576330;40;20060;-64
2022/10/08 09:58:02;;;;;;;4.85;1.40;;;;;;;18.44;50.17;101848.69;3580337;40;20060;-64
2022/10/08 10:00:38;;;;;;;8.38;1.83;;;;;;;18.92;49.75;101905.72;3580787;40;20375;-64
2022/10/08 10:03:16;;;;;;;5.57;1.40;;;;;;;19.32;49.39;101929.78;3577406;40;20064;-63
2022/10/08 10:05:43;;;;;;;8.25;1.63;;;;;;;19.37;46.47;101927.53;3580779;40;20389;-64
2022/10/08 10:08:50;;;;;;;11.35;2.47;;;;;;;19.38;45.25;101935.59;3580220;40;20325;-64
2022/10/08 10:11:36;;;;;;;12.82;2.20;;;;;;;19.09;45.63;101929.75;3582032;40;20091;-64
2022/10/08 10:14:42;;;;;;;7.15;1.50;;;;;;;18.41;46.72;101818.97;3577958;40;20065;-63
2022/10/08 10:17:53;;;;;;;7.38;1.85;;;;;;;18.97;45.85;101930.75;3589199;39;20059;-63
2022/10/08 10:20:27;;;;;;;10.45;1.92;;;;;;;18.84;47.82;101935.44;3568415;40;20052;-63
2022/10/08 10:23:27;;;;;;;5.78;1.63;;;;;;;18.36;47.32;101811.16;3574982;40;20071;-64
2022/10/08 10:26:08;;;;;;;8.05;1.60;;;;;;;18.62;46.62;101800.94;3578975;40;20052;-65
2022/10/08 10:28:55;;;;;;;4.43;1.20;;;;;;;19.70;46.18;101935.72;3579976;40;20064;-64
2022/10/08 10:31:29;;;;;;;5.65;1.45;;;;;;;20.16;45.80;101931.84;3581678;40;20056;-64
2022/10/08 10:34:14;;;;;;;9.32;1.92;;;;;;;20.49;44.32;101937.25;3580531;40;20313;-64
2022/10/08 10:37:13;;;;;;;8.93;2.15;;;;;;;20.47;42.40;101945.59;3580498;39;20052;-63
2022/10/08 10:39:58;;;;;;;5.10;1.80;;;;;;;20.23;42.47;101945.81;3578093;39;20060;-64
2022/10/08 10:43:05;;;;;;;7.20;1.40;;;;;;;20.41;43.06;101951.59;3579748;40;20059;-63
2022/10/08 10:45:34;;;;;;;4.50;1.40;;;;;;;20.64;41.52;101955.09;3579826;40;20280;-65
2022/10/08 10:48:00;;;;;;;4.10;1.10;;;;;;;20.51;40.98;101899.75;3583121;40;20059;-64
2022/10/08 10:50:53;;;;;;;3.60;1.17;;;;;;;21.10;39.78;101954.69;3581219;40;20056;-65
2022/10/08 10:53:42;;;;;;;7.97;1.50;;;;;;;21.28;39.18;101954.03;3581064;40;20056;-65
2022/10/08 10:56:19;;;;;;;4.50;1.40;;;;;;;21.06;39.73;101952.38;3579683;40;20064;-64
2022/10/08 10:59:07;;;;;;;8.75;1.40;;;;;;;20.45;40.61;101958.50;3578249;40;20061;-64
2022/10/08 11:01:52;;;;;;;4.38;1.23;;;;;;;20.07;41.82;101954.44;3579978;40;20121;-65
2022/10/08 11:04:53;;;;;;;7.85;1.75;;;;;;;20.32;42.83;101961.44;3578911;40;20079;-64
2022/10/08 11:07:49;;;;;;;4.00;1.40;;;;;;;20.65;41.79;101965.06;3575734;40;20056;-68
2022/10/08 11:10:38;;;;;;;4.93;1.48;;;;;;;21.20;40.80;101948.41;3580417;40;20328;-64
2022/10/08 11:13:45;;;;;;;4.60;1.50;;;;;;;21.65;39.62;101951.59;3578939;40;20066;-65
2022/10/08 11:16:29;;;;;;;2.72;0.98;;;;;;;22.03;38.92;101959.03;3565931;40;20052;-64
2022/10/08 11:18:59;;;;;;;6.05;1.45;;;;;;;22.22;36.90;101957.38;3578852;40;20067;-64
2022/10/08 11:22:01;;;;;;;6.68;1.45;;;;;;;22.43;36.61;101952.63;3580290;39;20060;-65
2022/10/08 11:24:46;;;;;;;7.43;1.63;;;;;;;22.75;37.75;101964.28;3574167;40;20064;-64
2022/10/08 11:27:34;;;;;;;5.93;1.42;;;;;;;22.82;35.67;101952.56;3580808;40;20318;-63
2022/10/08 11:30:16;;;;;;;6.65;1.60;;;;;;;22.74;35.99;101966.16;3578774;40;20067;-64
2022/10/08 11:32:51;;;;;;;6.47;1.38;;;;;;;22.19;37.46;101971.34;3578817;40;20056;-65
2022/10/08 11:35:46;;;;;;;4.78;1.85;;;;;;;21.41;37.83;101968.41;3577884;40;20068;-64
2022/10/08 11:38:34;;;;;;;5.20;1.20;;;;;;;20.63;40.21;101981.56;3579296;40;20114;-65
2022/10/08 11:41:24;;;;;;;9.73;2.05;;;;;;;19.86;41.58;101980.81;3579461;40;20461;-63
2022/10/08 11:44:00;;;;;;;10.40;2.03;;;;;;;19.48;42.10;101990.25;3577458;40;20084;-65
2022/10/08 11:46:35;;;;;;;5.25;1.38;;;;;;;19.91;41.41;101987.63;3584845;39;20044;-65
2022/10/08 11:49:22;;;;;;;7.00;1.50;;;;;;;20.53;39.97;101980.63;3579649;40;20067;-65
2022/10/08 11:51:51;;;;;;;10.27;1.52;;;;;;;21.07;39.69;101981.44;3575616;40;20413;-64
2022/10/08 11:54:33;;;;;;;6.32;1.40;;;;;;;21.37;38.67;101980.59;3579946;40;20129;-64